• Join FlightAware (Why Join?)
  • Login
  • US Flag 
09:26AM EDT


 

Airport Tracker/Info


-or-


 

Live Flight TrackerFlight Track Log ✈ EJA646 ✈ 18-Apr-2013 ✈ KDAL - KMIA

Flight Track Log - Related Links

Times and Time Zones

All times are in EDT time to prevent confusion due to time zone crossing. See the EJA646 flight status page for this flight to view local times or setup timezone preferences in your user account.

Time Position Orientation Groundspeed Altitude Reporting Facility
EDT Latitude Longitude Course Direction KTS MPH feet Rate Location/Type
10:34PM 32.8833 -96.8833 162° South 171 197 2,900  Level Dallas / Fort Worth TRACON
10:35PM 32.9167 -96.8833 360° North 212 244 5,500 2,820 Climbing Dallas / Fort Worth TRACON
10:36PM 32.8833 -96.8167 121° Southeast 274 315 8,600 3,120 Climbing Dallas / Fort Worth TRACON
10:37PM 32.8167 -96.7833 157° South 295 339 11,800 2,880 Climbing Dallas / Fort Worth TRACON
10:39PM 32.6207 -96.1839 162° South  Level Estimated
10:39PM 32.6858 -96.7964 185° South 288 331 16,800  Level Fort Worth Center
10:40PM 32.6022 -96.8019 183° South 288 331 19,000 2,040 Climbing Fort Worth Center
10:41PM 32.5292 -96.8047 182° South 293 337 20,900 2,040 Climbing Fort Worth Center
10:42PM 32.4417 -96.8078 182° South 293 337 23,100 2,100 Climbing Fort Worth Center
10:43PM 32.3622 -96.8133 183° South 287 330 25,100 1,800 Climbing Fort Worth Center
10:44PM 32.2808 -96.8161 182° South 287 330 26,800 1,560 Climbing Fort Worth Center
10:45PM 32.1972 -96.7825 161° South 302 348 28,300 1,440 Climbing Fort Worth Center
10:46PM 32.1114 -96.7486 162° South 317 365 29,700 1,200 Climbing Fort Worth Center
10:47PM 32.0256 -96.7175 163° South 325 374 30,800 1,020 Climbing Fort Worth Center
10:48PM 31.9378 -96.6839 162° South 333 383 31,800 960 Climbing Fort Worth Center
10:49PM 31.8456 -96.6456 161° South 333 383 32,800 960 Climbing Fort Worth Center
10:50PM 31.7536 -96.6094 162° South 343 395 33,800 900 Climbing Fort Worth Center
10:51PM 31.6719 -96.5786 162° South 348 400 34,600 900 Climbing Fort Worth Center
10:52PM 31.5803 -96.5392 160° South 350 403 35,600 900 Climbing Houston Center
10:53PM 31.4875 -96.5025 161° South 347 399 36,500 900 Climbing Houston Center
10:54PM 31.3961 -96.4683 162° South 342 394 37,500 840 Climbing Houston Center
10:55PM 31.3064 -96.4342 162° South 336 387 38,300 720 Climbing Houston Center
10:56PM 31.2175 -96.4006 162° South 333 383 39,000 600 Climbing Houston Center
10:57PM 31.1253 -96.3667 163° South 340 391 39,600 540 Climbing Houston Center
10:58PM 31.0325 -96.3311 162° South 346 398 40,100 480 Climbing Houston Center
10:59PM 30.9381 -96.2964 162° South 349 402 40,600 420 Climbing Houston Center
11:00PM 30.8428 -96.2608 162° South 354 407 41,000 180 Climbing Houston Center
11:01PM 30.7486 -96.2044 153° Southeast 386 444 41,000  Level Houston Center
11:02PM 30.6925 -96.0472 113° Southeast 473 544 41,000  Level Houston Center
11:03PM 30.6653 -95.9144 103° East 483 556 41,000  Level Houston Center
11:04PM 30.6389 -95.7617 101° East 484 557 41,000  Level Houston Center
11:05PM 30.6111 -95.6056 102° East 490 564 41,000  Level Houston Center
11:06PM 30.5783 -95.4253 102° East 487 560 41,000  Level Houston Center
11:07PM 30.5506 -95.2711 102° East 490 564 41,000  Level Houston Center
11:08PM 30.5219 -95.1169 102° East 492 566 41,000  Level Houston Center
11:09PM 30.4947 -94.9628 102° East 492 566 41,000  Level Houston Center
11:10PM 30.4672 -94.8061 101° East 497 572 41,000  Level Houston Center
11:11PM 30.4375 -94.6447 102° East 486 559 41,000  Level Houston Center
11:12PM 30.4081 -94.4878 102° East 495 570 41,000  Level Houston Center
11:13PM 30.3758 -94.3156 102° East 493 567 41,000  Level Houston Center
11:14PM 30.3464 -94.1622 103° East 490 564 41,000  Level Houston Center
11:15PM 30.3172 -94.0067 102° East 495 570 41,000  Level Houston Center
11:16PM 30.2883 -93.8533 102° East 493 567 41,000  Level Houston Center
11:17PM 30.2586 -93.6981 102° East 496 571 41,000  Level Houston Center
11:18PM 30.2300 -93.5439 102° East 492 566 41,000  Level Houston Center
11:19PM 30.1950 -93.3883 105° East 499 574 41,000  Level Houston Center
11:20PM 30.1644 -93.2339 103° East 498 573 41,000  Level Houston Center
11:21PM 30.1478 -93.0797 97° East 496 571 41,000  Level Houston Center
11:22PM 30.1753 -92.9231 78° East 501 577 41,000  Level Houston Center
11:23PM 30.2119 -92.7358 77° East 501 577 41,000  Level Houston Center
11:24PM 30.2425 -92.5828 77° East 496 571 41,000  Level Houston Center
11:25PM 30.2731 -92.4261 77° East 502 578 41,000  Level Houston Center
11:26PM 30.3025 -92.2711 78° East 499 574 41,000  Level Houston Center
11:27PM 30.3319 -92.1161 78° East 497 572 41,000  Level Houston Center
11:28PM 30.3611 -91.9600 78° East 499 574 41,000  Level Houston Center
11:29PM 30.3906 -91.8042 78° East 500 575 41,000  Level Houston Center
11:30PM 30.4236 -91.6286 78° East 501 577 41,000  Level Houston Center
11:31PM 30.4531 -91.4725 78° East 499 574 41,000  Level Houston Center
11:32PM 30.4806 -91.3144 79° East 500 575 41,000  Level Houston Center
11:33PM 30.4992 -91.1569 82° East 496 571 41,000  Level Houston Center
11:34PM 30.5136 -90.9994 84° East 494 568 41,000  Level Houston Center
11:35PM 30.5278 -90.8400 84° East 496 571 41,000  Level Houston Center
11:36PM 30.5411 -90.6825 84° East 494 568 41,000  Level Houston Center
11:37PM 30.5547 -90.5242 84° East 493 567 41,000  Level Houston Center
11:38PM 30.5697 -90.3664 84° East 493 567 41,000  Level Houston Center
11:39PM 30.5828 -90.2086 84° East 491 565 41,000  Level Houston Center
11:40PM 30.5967 -90.0511 84° East 489 563 41,000  Level Houston Center
11:41PM 30.6106 -89.8919 84° East 490 564 41,000  Level Houston Center
11:42PM 30.6239 -89.7325 84° East 489 563 41,000  Level Houston Center
11:43PM 30.6358 -89.5736 85° East 489 563 41,000  Level Houston Center
11:45PM 30.6483 -89.4158 85° East 489 563 41,000  Level Houston Center
11:46PM 30.6606 -89.2586 85° East 487 560 41,000  Level Houston Center
11:47PM 30.6731 -89.0692 86° East 489 563 41,000  Level Houston Center
11:48PM 30.6817 -88.9378 86° East 487 560 41,000  Level Houston Center
11:49PM 30.6958 -88.7503 85° East 488 562 41,000  Level Houston Center
11:50PM 30.7072 -88.5950 85° East 487 560 41,000  Level Houston Center
11:51PM 30.7181 -88.4419 85° East 488 562 41,000  Level Houston Center
11:52PM 30.7283 -88.2856 86° East 486 559 41,000  Level Houston Center
11:53PM 30.7392 -88.1289 85° East 487 560 41,000  Level Houston Center
11:54PM 30.7497 -87.9731 85° East 486 559 41,000  Level Houston Center
11:54PM 30.7544 -87.8525 87° East 491 565 41,000  Level Jacksonville Center
11:55PM 30.7667 -87.6983 85° East 486 559 41,000  Level Jacksonville Center
11:56PM 30.7744 -87.5442 87° East 476 548 41,000  Level Jacksonville Center
11:57PM 30.7294 -87.4042 110° East 463 533 41,000  Level Jacksonville Center
11:58PM 30.6436 -87.2939 132° Southeast 441 507 41,000  Level Jacksonville Center
11:59PM 30.5597 -87.1792 130° Southeast 453 521 41,000  Level Jacksonville Center
12:00AM 30.4736 -87.0692 132° Southeast 453 521 41,000  Level Jacksonville Center
12:01AM 30.3836 -86.9522 132° Southeast 450 518 41,000  Level Jacksonville Center
12:02AM 30.2953 -86.8378 132° Southeast 450 518 41,000  Level Jacksonville Center
12:03AM 30.2108 -86.7286 132° Southeast 456 525 41,000  Level Jacksonville Center
12:04AM 30.1244 -86.6169 132° Southeast 456 525 41,000  Level Jacksonville Center
12:05AM 30.0400 -86.5083 132° Southeast 461 531 41,000  Level Jacksonville Center
12:06AM 29.9553 -86.3997 132° Southeast 461 531 41,000  Level Jacksonville Center
12:07AM 29.8706 -86.2889 131° Southeast 461 531 41,000  Level Jacksonville Center
12:08AM 29.7836 -86.1781 132° Southeast 461 531 41,000  Level Jacksonville Center
12:09AM 29.6967 -86.0700 133° Southeast 461 531 41,000  Level Jacksonville Center
12:10AM 29.6097 -85.9597 132° Southeast 461 531 41,000  Level Jacksonville Center
12:11AM 29.5244 -85.8494 132° Southeast 461 531 41,000  Level Jacksonville Center
12:12AM 29.4372 -85.7397 132° Southeast 461 531 41,000  Level Jacksonville Center
12:13AM 29.3500 -85.6300 132° Southeast 461 531 41,000  Level Jacksonville Center
12:14AM 29.2606 -85.5181 132° Southeast 461 531 41,000  Level Jacksonville Center
12:15AM 29.1731 -85.4064 132° Southeast 461 531 41,000  Level Jacksonville Center
12:16AM 29.0853 -85.2994 133° Southeast 461 531 41,000  Level Jacksonville Center
12:17AM 29.0078 -85.1956 130° Southeast 466 536 41,000  Level Jacksonville Center
12:19AM 28.8447 -84.9994 133° Southeast 475 547 41,000  Level Miami Center
12:20AM 28.7594 -84.8892 131° Southeast 475 547 41,000  Level Miami Center
12:21AM 28.6697 -84.7786 133° Southeast 475 547 41,000  Level Miami Center
12:22AM 28.5797 -84.6708 134° Southeast 475 547 41,000  Level Miami Center
12:23AM 28.4919 -84.5608 132° Southeast 475 547 41,000  Level Miami Center
12:24AM 28.3981 -84.4483 133° Southeast 475 547 41,000  Level Miami Center
12:25AM 28.3100 -84.3386 132° Southeast 475 547 41,000  Level Miami Center
12:26AM 28.2219 -84.2292 132° Southeast 475 547 41,000  Level Miami Center
12:27AM 28.1444 -84.1114 127° Southeast 469 540 41,000  Level Miami Center
12:28AM 28.0606 -83.9956 129° Southeast 469 540 41,000  Level Miami Center
12:29AM 27.9808 -83.8778 127° Southeast 475 547 41,000  Level Miami Center
12:30AM 27.9011 -83.7603 127° Southeast 475 547 41,000  Level Miami Center
12:31AM 27.8172 -83.6425 129° Southeast 475 547 41,000  Level Miami Center
12:32AM 27.7328 -83.5272 130° Southeast 475 547 41,000  Level Miami Center
12:33AM 27.6528 -83.4081 127° Southeast 475 547 41,000  Level Miami Center
12:34AM 27.5783 -83.3006 128° Southeast 475 547 41,000  Level Miami Center
12:35AM 27.4939 -83.1858 130° Southeast 475 547 41,000  Level Miami Center
12:36AM 27.4133 -83.0694 128° Southeast 475 547 41,000  Level Miami Center
12:37AM 27.3325 -82.9575 129° Southeast 475 547 41,000  Level Miami Center
12:38AM 27.2561 -82.8392 126° Southeast 469 540 41,000 -120 Level Miami Center
12:39AM 27.1711 -82.7275 131° Southeast 464 534 40,800 -840 Descending Miami Center
12:40AM 27.0878 -82.6136 129° Southeast 464 534 39,400 -1,560 Descending Miami Center
12:41AM 27.0111 -82.5003 127° Southeast 464 534 37,700 -1,920 Descending Miami Center
12:42AM 26.9278 -82.3844 129° Southeast 464 534 35,600 -2,040 Descending Miami Center
12:43AM 26.8464 -82.2761 130° Southeast 464 534 33,700 -1,980 Descending Miami Center
12:44AM 26.7650 -82.1606 128° Southeast 464 534 31,700 -2,040 Descending Miami Center
12:45AM 26.6814 -82.0500 130° Southeast 464 534 29,700 -2,100 Descending Miami Center
12:46AM 26.6000 -81.9325 128° Southeast 469 540 27,500 -2,340 Descending Miami Center
12:47AM 26.5183 -81.8178 128° Southeast 469 540 25,100 -2,520 Descending Miami Center
12:48AM 26.4425 -81.7147 129° Southeast 450 518 22,600 -2,340 Descending Miami Center
12:49AM 26.3686 -81.6097 128° Southeast 440 506 20,500 -1,920 Descending Miami Center
12:50AM 26.2967 -81.5119 129° Southeast 422 486 18,800 -1,740 Descending Miami Center
12:51AM 26.2361 -81.4400 133° Southeast 403 464 17,600 -1,500 Descending Miami Center
12:51AM 26.2244 -81.4189 122° Southeast 409 471 17,300 -1,440 Descending Miami Center
12:52AM 26.1583 -81.3261 128° Southeast 398 458 15,800 -1,500 Descending Miami Center
12:53AM 26.0942 -81.2403 130° Southeast 379 436 14,300 -1,620 Descending Miami Center
12:54AM 26.0278 -81.1525 130° Southeast 366 421 12,700 -1,560 Descending Miami Center
12:55AM 25.9739 -81.0650 124° Southeast 360 414 11,200 -1,380 Descending Miami Center
12:56AM 25.9433 -80.9647 109° East 338 389 10,000 -900 Descending Miami Center
12:57AM 25.9067 -80.8525 110° East 289 333 9,300 -840 Descending Miami Center
12:58AM 25.8897 -80.7897 107° East 310 357 8,400 -1,320 Descending Miami Center
12:59AM 25.8528 -80.6800 110° East 269 310 6,500 -1,320 Descending Miami Center
01:00AM 25.8436 -80.6311 102° East 271 312 5,800 -1,380 Descending Miami Center
01:00AM 25.8297 -80.6053 121° Southeast 225 259 5,200 -1,500 Descending Miami Center
01:01AM 25.8125 -80.5450 108° East 200 230 3,900 -1,140 Descending Miami Center
01:02AM 25.7972 -80.4892 107° East 199 229 3,000 -720 Descending Miami Center
01:03AM 25.7942 -80.4450 94° East 137 158 2,500 -600 Descending Miami Center
01:04AM 25.7931 -80.4058 20° North 119 137 1,800 -720 Descending Miami Center
01:05AM 25.7952 -80.3149 20° North  Level Estimated
01:06AM 25.7939 -80.3714 88° East 118 136 1,100  Level Miami Center
01:07AM 25.7967 -80.3322 85° East 119 137 500 -600 Descending Miami Center
01:09AM 25.7954 -80.2901 20° North  Level Estimated
01:16AM 25.7954 -80.2901 20° North  Level Estimated
01:17AM 25.7954 -80.2901 20° North  Level Estimated
01:18AM 25.7954 -80.2901 20° North  Level Estimated
01:19AM 25.7954 -80.2901 20° North  Level Estimated
01:20AM 25.7954 -80.2901 20° North  Level Estimated
01:21AM 25.7954 -80.2901 20° North  Level Estimated
01:22AM 25.7954 -80.2901 20° North  Level Estimated
01:23AM 25.7954 -80.2901 20° North  Level Estimated
01:24AM 25.7954 -80.2901 20° North  Level Estimated
01:25AM 25.7954 -80.2901 20° North  Level Estimated
01:26AM 25.7954 -80.2901 20° North  Level Estimated
01:27AM 25.7954 -80.2901 20° North  Level Estimated